createdAt,value
2019-01-28T00:01:30.360Z,3.44
2019-01-28T00:04:01.227Z,3.40
2019-01-28T00:06:31.701Z,3.42
2019-01-28T00:09:02.204Z,3.35
2019-01-28T00:11:32.836Z,3.37
2019-01-28T00:14:03.384Z,3.40
2019-01-28T00:16:33.868Z,3.37
2019-01-28T00:19:04.564Z,3.38
2019-01-28T00:21:35.123Z,3.40
2019-01-28T00:24:05.973Z,3.43
2019-01-28T00:26:36.512Z,3.46
2019-01-28T00:29:07.155Z,3.36
2019-01-28T00:31:37.785Z,3.39
2019-01-28T00:34:08.329Z,3.38
2019-01-28T00:36:38.833Z,3.37
2019-01-28T00:39:11.064Z,3.26
2019-01-28T00:41:41.627Z,3.16
2019-01-28T00:44:12.166Z,3.17
2019-01-28T00:46:42.688Z,3.17
2019-01-28T00:49:13.238Z,3.17
2019-01-28T00:51:43.728Z,3.21
2019-01-28T00:54:14.261Z,3.15
2019-01-28T00:56:44.832Z,3.12
2019-01-28T00:59:15.384Z,3.10
2019-01-28T01:01:45.854Z,3.11
2019-01-28T01:04:16.412Z,3.08
2019-01-28T01:06:46.941Z,3.07
2019-01-28T01:09:17.444Z,3.08
2019-01-28T01:11:47.981Z,3.07
2019-01-28T01:14:19.392Z,3.02
2019-01-28T01:16:50.717Z,2.99
2019-01-28T01:19:21.232Z,2.92
2019-01-28T01:21:51.715Z,2.96
2019-01-28T01:24:22.246Z,2.93
2019-01-28T01:26:52.779Z,2.86
2019-01-28T01:29:23.281Z,2.92
2019-01-28T01:31:53.778Z,2.91
2019-01-28T01:34:24.289Z,2.83
2019-01-28T01:36:54.822Z,2.89
2019-01-28T01:39:25.388Z,2.91
2019-01-28T01:41:55.881Z,2.96
2019-01-28T01:44:26.474Z,2.95
2019-01-28T01:46:57.008Z,2.96
2019-01-28T01:49:27.535Z,3.01
2019-01-28T01:51:58.094Z,3.10
2019-01-28T01:54:28.661Z,3.09
2019-01-28T01:56:59.199Z,3.03
2019-01-28T01:59:29.669Z,3.06
2019-01-28T02:02:00.248Z,3.08
2019-01-28T02:04:31.163Z,3.12
2019-01-28T02:07:01.637Z,3.19
2019-01-28T02:09:32.174Z,3.13
2019-01-28T02:12:02.667Z,3.19
2019-01-28T02:14:33.174Z,3.19
2019-01-28T02:17:03.738Z,3.18
2019-01-28T02:19:34.282Z,3.17
2019-01-28T02:22:04.787Z,3.17
2019-01-28T02:24:35.310Z,3.19
2019-01-28T02:27:05.832Z,3.24
2019-01-28T02:29:36.352Z,3.14
2019-01-28T02:32:06.918Z,3.13
2019-01-28T02:34:37.408Z,3.11
2019-01-28T02:37:07.938Z,3.13
2019-01-28T02:39:38.564Z,3.10
2019-01-28T02:42:09.093Z,3.14
2019-01-28T02:44:39.619Z,3.10
2019-01-28T02:47:10.158Z,3.07
2019-01-28T02:49:40.655Z,3.04
2019-01-28T02:52:11.171Z,3.07
2019-01-28T02:54:41.699Z,3.01
2019-01-28T02:57:12.199Z,3.03
2019-01-28T02:59:42.711Z,3.04
2019-01-28T03:02:13.257Z,3.02
2019-01-28T03:04:43.798Z,3.04
2019-01-28T03:07:14.280Z,3.06
2019-01-28T03:09:44.800Z,3.04
2019-01-28T03:12:15.327Z,3.11
2019-01-28T03:14:45.860Z,3.05
2019-01-28T03:17:16.397Z,3.10
2019-01-28T03:19:46.912Z,3.12
2019-01-28T03:22:17.433Z,3.12
2019-01-28T03:24:47.973Z,3.16
2019-01-28T03:27:18.479Z,3.11
2019-01-28T03:29:48.996Z,3.08
2019-01-28T03:32:19.537Z,3.10
2019-01-28T03:34:50.203Z,3.09
2019-01-28T03:37:20.692Z,3.10
2019-01-28T03:39:51.228Z,3.11
2019-01-28T03:42:21.753Z,3.15
2019-01-28T03:44:52.270Z,3.18
2019-01-28T03:47:22.793Z,3.21
2019-01-28T03:49:53.311Z,3.16
2019-01-28T03:52:24.065Z,3.26
2019-01-28T03:54:54.591Z,3.17
2019-01-28T03:57:25.129Z,3.12
2019-01-28T03:59:55.644Z,3.13
2019-01-28T04:02:26.207Z,3.18
2019-01-28T04:04:56.704Z,3.17
2019-01-28T04:07:27.243Z,3.11
2019-01-28T04:09:57.764Z,3.11
2019-01-28T04:12:28.258Z,3.14
2019-01-28T04:14:58.788Z,3.11
2019-01-28T04:17:29.433Z,3.14
2019-01-28T04:19:59.937Z,3.12
2019-01-28T04:22:30.449Z,3.11
2019-01-28T04:25:01.023Z,3.16
2019-01-28T04:27:31.568Z,3.13
2019-01-28T04:30:02.103Z,3.11
2019-01-28T04:32:32.632Z,3.22
2019-01-28T04:35:03.168Z,3.21
2019-01-28T04:37:33.695Z,3.15
2019-01-28T04:40:04.941Z,3.21
2019-01-28T04:42:35.567Z,3.18
2019-01-28T04:45:09.015Z,3.13
2019-01-28T04:47:39.573Z,3.19
2019-01-28T04:50:15.781Z,3.18
2019-01-28T04:52:46.410Z,3.18
2019-01-28T04:55:17.421Z,3.15
2019-01-28T04:57:48.146Z,3.13
2019-01-28T05:00:21.675Z,3.13
2019-01-28T05:02:52.421Z,3.18
2019-01-28T05:05:23.057Z,3.18
2019-01-28T05:07:58.976Z,3.15
2019-01-28T05:10:29.514Z,3.15
2019-01-28T05:13:00.057Z,3.18
2019-01-28T05:15:30.624Z,3.17
2019-01-28T05:18:01.358Z,3.15
2019-01-28T05:20:31.953Z,3.20
2019-01-28T05:23:02.525Z,3.14
2019-01-28T05:25:33.045Z,3.10
2019-01-28T05:28:03.558Z,3.09
2019-01-28T05:30:34.226Z,3.14
2019-01-28T05:33:04.829Z,3.13
2019-01-28T05:35:35.335Z,3.19
2019-01-28T05:38:06.100Z,3.21
2019-01-28T05:40:36.647Z,3.24
2019-01-28T05:43:07.337Z,3.15
2019-01-28T05:45:37.956Z,3.17
2019-01-28T05:48:08.486Z,3.16
2019-01-28T05:50:39.023Z,3.19
2019-01-28T05:53:09.619Z,3.29
2019-01-28T05:55:40.130Z,3.28
2019-01-28T05:58:10.711Z,3.24
2019-01-28T06:00:44.008Z,3.18
2019-01-28T06:03:14.684Z,3.23
2019-01-28T06:05:46.640Z,3.19
2019-01-28T06:08:17.192Z,3.21
2019-01-28T06:10:47.745Z,3.16
2019-01-28T06:13:18.320Z,3.11
2019-01-28T06:15:48.898Z,3.11
2019-01-28T06:18:19.511Z,3.10
2019-01-28T06:20:50.006Z,3.07
2019-01-28T06:23:20.541Z,3.15
2019-01-28T06:25:51.068Z,3.10
2019-01-28T06:28:21.606Z,3.10
2019-01-28T06:30:52.114Z,3.08
2019-01-28T06:33:22.636Z,3.04
2019-01-28T06:35:53.128Z,3.05
2019-01-28T06:38:23.811Z,3.03
2019-01-28T06:40:54.301Z,3.05
2019-01-28T06:43:24.853Z,3.01
2019-01-28T06:45:55.397Z,2.97
2019-01-28T06:48:25.942Z,3.09
2019-01-28T06:50:56.458Z,3.02
2019-01-28T06:53:27.102Z,3.04
2019-01-28T06:55:57.611Z,2.98
2019-01-28T06:58:28.161Z,2.98
2019-01-28T07:00:58.756Z,2.92
2019-01-28T07:03:29.249Z,2.87
2019-01-28T07:05:59.774Z,2.91
2019-01-28T07:08:30.372Z,2.90
2019-01-28T07:11:00.883Z,2.91
2019-01-28T07:13:31.383Z,2.84
2019-01-28T07:16:02.405Z,2.88
2019-01-28T07:18:32.974Z,3.03
2019-01-28T07:21:03.477Z,3.07
2019-01-28T07:23:34.040Z,2.98
2019-01-28T07:26:04.579Z,3.02
2019-01-28T07:28:35.105Z,2.96
2019-01-28T07:31:05.714Z,2.92
2019-01-28T07:33:36.392Z,2.91
2019-01-28T07:36:06.902Z,2.89
2019-01-28T07:38:37.496Z,2.91
2019-01-28T07:41:08.006Z,2.84
2019-01-28T07:43:38.585Z,2.89
2019-01-28T07:46:09.132Z,2.92
2019-01-28T07:48:39.694Z,2.95
2019-01-28T07:51:10.292Z,2.90
2019-01-28T07:53:41.052Z,2.90
2019-01-28T07:56:11.573Z,2.91
2019-01-28T07:58:42.108Z,2.87
2019-01-28T08:01:12.688Z,2.84
2019-01-28T08:03:43.272Z,2.93
2019-01-28T08:06:13.963Z,2.90
2019-01-28T08:08:44.647Z,2.97
2019-01-28T08:11:15.179Z,2.98
2019-01-28T08:13:45.674Z,2.95
2019-01-28T08:16:16.217Z,3.05
2019-01-28T08:18:46.772Z,3.03
2019-01-28T08:21:17.287Z,3.03
2019-01-28T08:23:47.873Z,3.13
2019-01-28T08:26:18.369Z,3.12
2019-01-28T08:28:49.000Z,3.08
2019-01-28T08:31:19.560Z,3.04
2019-01-28T08:33:50.046Z,3.09
2019-01-28T08:36:20.642Z,3.17
2019-01-28T08:38:51.183Z,3.14
2019-01-28T08:41:21.730Z,3.14
2019-01-28T08:43:52.259Z,3.16
2019-01-28T08:46:22.819Z,3.13
2019-01-28T08:48:53.423Z,3.08
2019-01-28T08:51:23.942Z,3.08
2019-01-28T08:53:54.501Z,3.15
2019-01-28T08:56:25.054Z,3.14
2019-01-28T08:58:55.539Z,3.09
2019-01-28T09:01:26.081Z,3.08
2019-01-28T09:03:56.602Z,3.13
2019-01-28T09:06:27.153Z,3.14
2019-01-28T09:08:57.774Z,3.25
2019-01-28T09:11:28.327Z,3.18
2019-01-28T09:13:59.024Z,3.22
2019-01-28T09:16:29.593Z,3.21
2019-01-28T09:19:00.226Z,3.19
2019-01-28T09:21:30.784Z,3.23
2019-01-28T09:24:01.464Z,3.35
2019-01-28T09:26:32.047Z,3.26
2019-01-28T09:29:02.612Z,3.28
2019-01-28T09:31:33.246Z,3.23
2019-01-28T09:34:03.967Z,3.27
2019-01-28T09:36:34.532Z,3.21
2019-01-28T09:39:08.009Z,3.26
2019-01-28T09:41:38.523Z,3.46
2019-01-28T09:44:09.122Z,3.37
2019-01-28T09:46:39.650Z,3.37
2019-01-28T09:49:10.175Z,3.49
2019-01-28T09:51:40.709Z,3.46
2019-01-28T09:54:11.205Z,3.53
2019-01-28T09:56:41.702Z,3.59
2019-01-28T09:59:12.194Z,3.56
2019-01-28T10:01:42.688Z,3.56
2019-01-28T10:04:13.200Z,3.66
2019-01-28T10:06:43.693Z,3.78
2019-01-28T10:09:14.212Z,3.80
2019-01-28T10:11:44.708Z,3.81
2019-01-28T10:14:15.193Z,3.79
2019-01-28T10:16:45.715Z,3.69
2019-01-28T10:19:16.257Z,3.77
2019-01-28T10:21:46.751Z,3.79
2019-01-28T10:24:17.249Z,3.82
2019-01-28T10:26:47.885Z,3.83
2019-01-28T10:29:18.387Z,3.89
2019-01-28T10:31:48.913Z,3.98
2019-01-28T10:34:19.447Z,4.10
2019-01-28T10:36:50.020Z,4.22
2019-01-28T10:39:20.570Z,4.19
2019-01-28T10:41:51.126Z,4.20
2019-01-28T10:44:21.619Z,4.23
2019-01-28T10:46:52.127Z,4.21
2019-01-28T10:49:22.596Z,4.28
2019-01-28T10:51:53.125Z,4.41
2019-01-28T10:54:23.710Z,4.41
2019-01-28T10:56:54.194Z,4.38
2019-01-28T10:59:24.695Z,4.44
2019-01-28T11:01:55.232Z,4.52
2019-01-28T11:04:25.745Z,4.49
2019-01-28T11:06:56.249Z,4.39
2019-01-28T11:09:26.795Z,4.40
2019-01-28T11:11:57.436Z,4.28
2019-01-28T11:14:27.969Z,4.26
2019-01-28T11:16:58.695Z,4.25
2019-01-28T11:19:29.373Z,4.29
2019-01-28T11:21:59.909Z,4.26
2019-01-28T11:24:30.492Z,4.31
2019-01-28T11:27:01.131Z,4.34
2019-01-28T11:29:31.752Z,4.23
2019-01-28T11:32:02.362Z,4.26
2019-01-28T11:34:33.108Z,4.25
2019-01-28T11:37:03.647Z,4.31
2019-01-28T11:39:34.444Z,4.36
2019-01-28T11:42:05.258Z,4.33
2019-01-28T11:44:35.882Z,4.32
2019-01-28T11:47:06.519Z,4.20
2019-01-28T11:49:37.156Z,4.26
2019-01-28T11:52:07.617Z,4.26
2019-01-28T11:54:38.104Z,4.19
2019-01-28T11:57:08.570Z,4.13
2019-01-28T11:59:39.067Z,4.12
2019-01-28T12:02:09.652Z,4.16
2019-01-28T12:04:40.159Z,4.13
2019-01-28T12:07:10.629Z,4.14
2019-01-28T12:09:41.174Z,4.17
2019-01-28T12:12:11.638Z,4.14
2019-01-28T12:14:42.169Z,4.15
2019-01-28T12:17:12.770Z,4.19
2019-01-28T12:19:43.267Z,4.12
2019-01-28T12:22:13.755Z,4.14
2019-01-28T12:24:44.289Z,4.18
2019-01-28T12:27:14.792Z,4.23
2019-01-28T12:29:45.249Z,4.26
2019-01-28T12:32:15.756Z,4.27
2019-01-28T12:34:46.232Z,4.21
2019-01-28T12:37:16.743Z,4.30
2019-01-28T12:39:47.399Z,4.26
2019-01-28T12:42:17.870Z,4.28
2019-01-28T12:44:48.370Z,4.33
2019-01-28T12:47:18.904Z,4.36
2019-01-28T12:49:49.398Z,4.44
2019-01-28T12:52:19.868Z,4.38
2019-01-28T12:54:50.365Z,4.49
2019-01-28T12:57:20.845Z,4.44
2019-01-28T12:59:51.365Z,4.37
2019-01-28T13:02:21.833Z,4.35
2019-01-28T13:04:52.382Z,4.31
2019-01-28T13:07:22.951Z,4.36
2019-01-28T13:09:53.540Z,4.33
2019-01-28T13:12:24.018Z,4.25
2019-01-28T13:14:54.562Z,4.16
2019-01-28T13:17:25.042Z,4.12
2019-01-28T13:19:55.596Z,4.21
2019-01-28T13:22:26.054Z,4.18
2019-01-28T13:24:56.583Z,4.15
2019-01-28T13:27:27.143Z,4.22
2019-01-28T13:29:57.624Z,4.17
2019-01-28T13:32:28.141Z,4.10
2019-01-28T13:34:58.620Z,4.15
2019-01-28T13:37:29.245Z,4.12
2019-01-28T13:39:59.735Z,4.03
2019-01-28T13:42:30.360Z,3.89
2019-01-28T13:45:00.886Z,3.88
2019-01-28T13:47:31.387Z,3.91
2019-01-28T13:50:01.952Z,3.81
2019-01-28T13:52:32.465Z,3.81
2019-01-28T13:55:02.937Z,3.82
2019-01-28T13:57:33.725Z,3.77
2019-01-28T14:00:07.466Z,3.76
2019-01-28T14:02:38.075Z,3.74
2019-01-28T14:05:09.610Z,3.72
2019-01-28T14:07:49.019Z,3.80
2019-01-28T14:10:19.854Z,3.76
2019-01-28T14:12:50.594Z,3.84
2019-01-28T14:15:34.453Z,3.81
2019-01-28T14:18:05.385Z,3.83
2019-01-28T14:20:36.160Z,3.80
2019-01-28T14:23:07.112Z,3.78
2019-01-28T14:25:37.870Z,3.82
2019-01-28T14:28:10.234Z,3.90
2019-01-28T14:30:46.976Z,3.89
2019-01-28T14:33:17.507Z,3.91
2019-01-28T14:35:48.103Z,4.00
2019-01-28T14:38:19.021Z,3.83
2019-01-28T14:40:49.859Z,3.82
2019-01-28T14:43:20.386Z,3.94
2019-01-28T14:45:50.971Z,3.77
2019-01-28T14:48:21.498Z,3.82
2019-01-28T14:50:52.656Z,3.76
2019-01-28T14:53:23.336Z,3.80
2019-01-28T14:55:53.944Z,3.68
2019-01-28T14:58:24.680Z,3.65
2019-01-28T15:00:55.322Z,3.65
2019-01-28T15:03:25.856Z,3.60
2019-01-28T15:05:56.427Z,3.60
2019-01-28T15:08:27.003Z,3.62
2019-01-28T15:10:57.547Z,3.63
2019-01-28T15:13:28.144Z,3.65
2019-01-28T15:15:58.754Z,3.54
2019-01-28T15:18:29.281Z,3.50
2019-01-28T15:20:59.894Z,3.44
2019-01-28T15:23:30.555Z,3.38
2019-01-28T15:26:01.129Z,3.42
2019-01-28T15:28:31.718Z,3.34
2019-01-28T15:31:02.346Z,3.40
2019-01-28T15:33:33.120Z,3.43
2019-01-28T15:36:03.694Z,3.39
2019-01-28T15:38:34.277Z,3.34
2019-01-28T16:11:59.509Z,3.33
2019-01-28T16:14:36.793Z,3.31
2019-01-28T16:17:07.571Z,3.21
2019-01-28T16:19:38.488Z,3.23
2019-01-28T16:22:09.233Z,3.27
2019-01-28T16:24:39.854Z,3.26
2019-01-28T16:27:10.428Z,3.30
2019-01-28T16:29:41.347Z,3.16
2019-01-28T16:32:11.401Z,3.15
2019-01-28T16:34:42.011Z,3.13
2019-01-28T16:37:12.550Z,3.11
2019-01-28T16:39:43.159Z,3.05
2019-01-28T16:42:13.812Z,3.07
2019-01-28T16:44:44.429Z,3.06
2019-01-28T16:47:15.262Z,3.06
2019-01-28T16:49:45.838Z,3.07
2019-01-28T16:52:16.659Z,3.13
2019-01-28T16:54:47.344Z,3.09
2019-01-28T16:57:18.045Z,3.12
2019-01-28T16:59:48.628Z,3.09
2019-01-28T17:02:19.382Z,2.87
2019-01-28T17:04:50.468Z,2.78
2019-01-28T17:07:21.202Z,2.72
2019-01-28T17:09:51.839Z,2.60
2019-01-28T17:12:22.495Z,2.60
2019-01-28T17:14:53.052Z,2.43
2019-01-28T17:17:23.910Z,2.42
2019-01-28T17:19:54.609Z,2.30
2019-01-28T17:22:25.404Z,2.32
2019-01-28T17:24:55.928Z,2.18
2019-01-28T17:27:40.416Z,2.04
2019-01-28T17:30:33.987Z,2.00
2019-01-28T17:33:13.411Z,2.03
2019-01-28T17:35:47.966Z,2.10
2019-01-28T17:38:27.597Z,2.11
2019-01-28T17:40:58.232Z,2.04
2019-01-28T17:43:29.072Z,1.96
2019-01-28T17:45:59.669Z,1.89
2019-01-28T17:48:30.287Z,1.84
2019-01-28T17:51:00.870Z,1.67
2019-01-28T17:53:31.471Z,1.51
2019-01-28T17:56:02.080Z,1.40
2019-01-28T17:58:32.588Z,1.49
2019-01-28T18:01:03.262Z,1.36
2019-01-28T18:03:34.237Z,1.33
2019-01-28T18:06:04.996Z,1.31
2019-01-28T18:08:35.696Z,1.34
2019-01-28T18:11:06.941Z,1.28
2019-01-28T18:13:43.382Z,1.23
2019-01-28T18:16:14.231Z,1.14
2019-01-28T18:18:44.920Z,1.10
2019-01-28T18:21:15.778Z,1.14
2019-01-28T18:23:52.292Z,1.12
2019-01-28T18:26:23.408Z,1.08
2019-01-28T18:28:53.947Z,1.10
2019-01-28T18:31:24.595Z,1.07
2019-01-28T18:33:55.192Z,1.05
2019-01-28T18:36:26.224Z,1.03
2019-01-28T18:38:56.863Z,1.01
2019-01-28T18:41:27.593Z,1.04
2019-01-28T18:43:58.282Z,0.92
2019-01-28T18:46:28.915Z,0.85
2019-01-28T18:48:59.628Z,0.74
2019-01-28T18:51:30.283Z,0.75
2019-01-28T18:54:01.324Z,0.71
2019-01-28T18:56:32.427Z,0.64
2019-01-28T18:59:03.164Z,0.66
2019-01-28T19:01:33.824Z,0.67
2019-01-28T19:04:05.249Z,0.59
2019-01-28T19:06:50.213Z,0.58
2019-01-28T19:09:33.143Z,0.62
2019-01-28T19:12:21.574Z,0.69
2019-01-28T19:15:11.158Z,0.54
2019-01-28T19:18:08.249Z,0.48
2019-01-28T19:21:08.111Z,0.58
2019-01-28T19:23:37.068Z,0.53
2019-01-28T19:26:08.005Z,0.49
2019-01-28T19:28:38.812Z,0.53
2019-01-28T19:31:09.644Z,0.46
2019-01-28T19:33:40.569Z,0.50
2019-01-28T19:36:11.858Z,0.49
2019-01-28T19:38:43.574Z,0.49
2019-01-28T19:41:14.528Z,0.40
2019-01-28T19:43:45.335Z,0.43
2019-01-28T19:46:16.345Z,0.38
2019-01-28T19:48:47.418Z,0.34
2019-01-28T19:51:18.226Z,0.31
2019-01-28T19:53:49.104Z,0.28
2019-01-28T19:56:19.873Z,0.20
2019-01-28T19:58:51.099Z,0.22
2019-01-28T20:01:21.922Z,0.28
2019-01-28T20:03:56.747Z,0.24
2019-01-28T20:06:27.340Z,0.28
2019-01-28T20:09:22.270Z,0.32
2019-01-28T20:11:53.091Z,0.26
2019-01-28T20:14:27.406Z,0.31
2019-01-28T20:16:58.558Z,0.24
2019-01-28T20:19:30.083Z,0.38
2019-01-28T20:22:00.978Z,0.23
2019-01-28T20:24:32.069Z,0.22
2019-01-28T20:27:02.912Z,0.23
2019-01-28T20:29:34.936Z,0.17
2019-01-28T20:32:06.020Z,0.25
2019-01-28T20:34:43.326Z,0.25
2019-01-28T20:37:11.878Z,0.24
2019-01-28T20:39:42.571Z,0.26
2019-01-28T20:42:15.987Z,0.35
2019-01-28T20:44:56.165Z,0.24
2019-01-28T20:47:27.436Z,0.31
2019-01-28T20:49:58.449Z,0.28
2019-01-28T20:52:29.191Z,0.28
2019-01-28T20:55:00.566Z,0.22
2019-01-28T20:57:32.375Z,0.23
2019-01-28T21:00:03.333Z,0.20
2019-01-28T21:02:34.266Z,0.26
2019-01-28T21:05:05.575Z,0.18
2019-01-28T21:07:36.339Z,0.22
2019-01-28T21:10:09.873Z,0.13
2019-01-28T21:12:40.588Z,0.00
2019-01-28T21:15:14.213Z,-0.04
2019-01-28T21:17:46.076Z,-0.03
2019-01-28T21:20:18.460Z,-0.01
2019-01-28T21:22:49.764Z,-0.06
2019-01-28T21:25:23.157Z,-0.10
2019-01-28T21:27:54.069Z,-0.12
2019-01-28T21:30:31.517Z,-0.10
2019-01-28T21:33:02.415Z,-0.09
2019-01-28T21:35:52.158Z,-0.13
2019-01-28T21:38:28.393Z,-0.10
2019-01-28T21:43:27.539Z,-0.14
2019-01-28T21:45:58.020Z,-0.18
2019-01-28T21:48:28.516Z,-0.15
2019-01-28T21:50:59.217Z,-0.23
2019-01-28T21:53:29.686Z,-0.23
2019-01-28T21:56:00.177Z,-0.27
2019-01-28T21:58:30.770Z,-0.30
2019-01-28T22:01:01.150Z,-0.40
2019-01-28T22:03:31.731Z,-0.41
2019-01-28T22:06:02.318Z,-0.44
2019-01-28T22:08:32.844Z,-0.44
2019-01-28T22:11:03.494Z,-0.50
2019-01-28T22:13:34.102Z,-0.50
2019-01-28T22:16:04.845Z,-0.51
2019-01-28T22:18:35.359Z,-0.59
2019-01-28T22:21:13.095Z,-0.65
2019-01-28T22:23:44.218Z,-0.64
2019-01-28T22:26:14.709Z,-0.66
2019-01-28T22:28:45.331Z,-0.65
2019-01-28T22:31:15.880Z,-0.75
2019-01-28T22:33:46.440Z,-0.76
2019-01-28T22:36:17.034Z,-0.78
2019-01-28T22:38:48.171Z,-0.82
2019-01-28T22:41:19.003Z,-0.80
2019-01-28T22:43:49.586Z,-0.81
2019-01-28T22:46:20.156Z,-0.85
2019-01-28T22:48:50.769Z,-0.83
2019-01-28T22:51:21.331Z,-0.89
2019-01-28T22:53:51.912Z,-0.91
2019-01-28T22:56:22.434Z,-0.90
2019-01-28T22:58:52.993Z,-0.95
2019-01-28T23:01:30.402Z,-0.94
2019-01-28T23:04:00.921Z,-0.98
2019-01-28T23:06:31.399Z,-1.01
2019-01-28T23:09:01.924Z,-0.97
2019-01-28T23:11:32.463Z,-1.02
2019-01-28T23:14:02.970Z,-1.05
2019-01-28T23:16:33.487Z,-1.09
2019-01-28T23:19:04.023Z,-1.08
2019-01-28T23:21:34.908Z,-1.09
2019-01-28T23:24:08.032Z,-1.13
2019-01-28T23:26:38.573Z,-1.13
2019-01-28T23:29:09.087Z,-1.13
2019-01-28T23:31:39.581Z,-1.13
2019-01-28T23:34:10.290Z,-1.15
2019-01-28T23:36:40.839Z,-1.16
2019-01-28T23:39:11.327Z,-1.16
2019-01-28T23:41:41.891Z,-1.14
2019-01-28T23:44:12.574Z,-1.18
2019-01-28T23:46:43.045Z,-1.13
2019-01-28T23:49:13.572Z,-1.18
2019-01-28T23:51:44.097Z,-1.17
2019-01-28T23:54:14.598Z,-1.21
2019-01-28T23:56:45.135Z,-1.19
2019-01-28T23:59:15.659Z,-1.20
